sensor_id;sensor_type;location;lat;lon;timestamp;P1;durP1;ratioP1;P2;durP2;ratioP2
8474;SDS011;4274;52.012;8.448;2024-02-04T00:00:03;55.70;;;10.30;;
8474;SDS011;4274;52.012;8.448;2024-02-04T00:02:30;54.53;;;11.40;;
8474;SDS011;4274;52.012;8.448;2024-02-04T00:04:56;54.77;;;10.83;;
8474;SDS011;4274;52.012;8.448;2024-02-04T00:07:21;52.80;;;10.80;;
8474;SDS011;4274;52.012;8.448;2024-02-04T00:09:47;53.33;;;9.80;;
8474;SDS011;4274;52.012;8.448;2024-02-04T00:12:12;49.63;;;9.87;;
8474;SDS011;4274;52.012;8.448;2024-02-04T00:14:38;56.50;;;10.10;;
8474;SDS011;4274;52.012;8.448;2024-02-04T00:17:04;55.27;;;11.27;;
8474;SDS011;4274;52.012;8.448;2024-02-04T00:19:29;62.93;;;10.20;;
8474;SDS011;4274;52.012;8.448;2024-02-04T00:21:55;52.97;;;10.77;;
8474;SDS011;4274;52.012;8.448;2024-02-04T00:24:20;55.73;;;11.40;;
8474;SDS011;4274;52.012;8.448;2024-02-04T00:26:46;53.03;;;10.87;;
8474;SDS011;4274;52.012;8.448;2024-02-04T00:29:12;50.13;;;8.90;;
8474;SDS011;4274;52.012;8.448;2024-02-04T00:31:38;48.27;;;9.47;;
8474;SDS011;4274;52.012;8.448;2024-02-04T00:34:04;48.90;;;8.50;;
8474;SDS011;4274;52.012;8.448;2024-02-04T00:36:30;50.83;;;9.50;;
8474;SDS011;4274;52.012;8.448;2024-02-04T00:38:56;48.47;;;8.27;;
8474;SDS011;4274;52.012;8.448;2024-02-04T00:41:21;50.03;;;8.40;;
8474;SDS011;4274;52.012;8.448;2024-02-04T00:43:47;49.43;;;8.50;;
8474;SDS011;4274;52.012;8.448;2024-02-04T00:46:13;50.40;;;8.70;;
8474;SDS011;4274;52.012;8.448;2024-02-04T00:48:38;48.90;;;8.20;;
8474;SDS011;4274;52.012;8.448;2024-02-04T00:51:07;48.00;;;7.50;;
8474;SDS011;4274;52.012;8.448;2024-02-04T00:53:32;47.80;;;9.10;;
8474;SDS011;4274;52.012;8.448;2024-02-04T00:56:02;44.83;;;6.93;;
8474;SDS011;4274;52.012;8.448;2024-02-04T00:58:29;45.60;;;7.50;;
8474;SDS011;4274;52.012;8.448;2024-02-04T01:00:55;49.80;;;7.80;;
8474;SDS011;4274;52.012;8.448;2024-02-04T01:03:21;48.30;;;7.30;;
8474;SDS011;4274;52.012;8.448;2024-02-04T01:05:46;47.97;;;8.70;;
8474;SDS011;4274;52.012;8.448;2024-02-04T01:08:12;46.40;;;6.70;;
8474;SDS011;4274;52.012;8.448;2024-02-04T01:10:37;45.33;;;7.47;;
8474;SDS011;4274;52.012;8.448;2024-02-04T01:13:03;47.00;;;7.57;;
8474;SDS011;4274;52.012;8.448;2024-02-04T01:15:29;49.00;;;9.20;;
8474;SDS011;4274;52.012;8.448;2024-02-04T01:17:54;47.77;;;8.50;;
8474;SDS011;4274;52.012;8.448;2024-02-04T01:20:20;53.23;;;8.20;;
8474;SDS011;4274;52.012;8.448;2024-02-04T01:22:46;49.17;;;8.33;;
8474;SDS011;4274;52.012;8.448;2024-02-04T01:25:11;49.87;;;8.77;;
8474;SDS011;4274;52.012;8.448;2024-02-04T01:27:37;51.77;;;8.57;;
8474;SDS011;4274;52.012;8.448;2024-02-04T01:30:03;50.60;;;8.20;;
8474;SDS011;4274;52.012;8.448;2024-02-04T01:32:29;48.43;;;8.53;;
8474;SDS011;4274;52.012;8.448;2024-02-04T01:34:55;47.77;;;8.97;;
8474;SDS011;4274;52.012;8.448;2024-02-04T01:37:20;51.47;;;9.37;;
8474;SDS011;4274;52.012;8.448;2024-02-04T01:39:46;52.53;;;9.27;;
8474;SDS011;4274;52.012;8.448;2024-02-04T01:42:11;51.60;;;10.03;;
8474;SDS011;4274;52.012;8.448;2024-02-04T01:44:37;49.30;;;9.97;;
8474;SDS011;4274;52.012;8.448;2024-02-04T01:47:02;56.53;;;10.80;;
8474;SDS011;4274;52.012;8.448;2024-02-04T01:49:28;57.40;;;12.03;;
8474;SDS011;4274;52.012;8.448;2024-02-04T01:51:54;58.17;;;12.83;;
8474;SDS011;4274;52.012;8.448;2024-02-04T01:54:21;59.87;;;14.53;;
8474;SDS011;4274;52.012;8.448;2024-02-04T01:56:49;64.03;;;15.57;;
8474;SDS011;4274;52.012;8.448;2024-02-04T01:59:15;72.00;;;17.13;;
8474;SDS011;4274;52.012;8.448;2024-02-04T02:01:41;76.37;;;18.30;;
8474;SDS011;4274;52.012;8.448;2024-02-04T02:04:08;71.10;;;17.60;;
8474;SDS011;4274;52.012;8.448;2024-02-04T02:06:33;70.23;;;18.27;;
8474;SDS011;4274;52.012;8.448;2024-02-04T02:09:06;65.10;;;16.57;;
8474;SDS011;4274;52.012;8.448;2024-02-04T02:11:37;65.87;;;16.17;;
8474;SDS011;4274;52.012;8.448;2024-02-04T02:14:06;71.20;;;16.90;;
8474;SDS011;4274;52.012;8.448;2024-02-04T02:16:37;67.00;;;16.73;;
8474;SDS011;4274;52.012;8.448;2024-02-04T02:19:06;62.50;;;14.97;;
8474;SDS011;4274;52.012;8.448;2024-02-04T02:22:20;67.23;;;16.00;;
8474;SDS011;4274;52.012;8.448;2024-02-04T02:25:03;65.27;;;14.50;;
8474;SDS011;4274;52.012;8.448;2024-02-04T02:27:30;71.43;;;15.90;;
8474;SDS011;4274;52.012;8.448;2024-02-04T02:29:55;63.73;;;16.43;;
8474;SDS011;4274;52.012;8.448;2024-02-04T02:32:21;66.90;;;17.60;;
8474;SDS011;4274;52.012;8.448;2024-02-04T02:34:47;71.23;;;16.47;;
8474;SDS011;4274;52.012;8.448;2024-02-04T02:39:45;61.93;;;15.23;;
8474;SDS011;4274;52.012;8.448;2024-02-04T02:42:18;68.23;;;16.47;;
8474;SDS011;4274;52.012;8.448;2024-02-04T02:44:45;62.97;;;14.90;;
8474;SDS011;4274;52.012;8.448;2024-02-04T02:47:12;63.47;;;14.87;;
8474;SDS011;4274;52.012;8.448;2024-02-04T02:49:39;62.33;;;13.80;;
8474;SDS011;4274;52.012;8.448;2024-02-04T02:52:05;58.70;;;12.63;;
8474;SDS011;4274;52.012;8.448;2024-02-04T02:54:31;56.10;;;12.80;;
8474;SDS011;4274;52.012;8.448;2024-02-04T02:56:56;59.47;;;12.77;;
8474;SDS011;4274;52.012;8.448;2024-02-04T02:59:22;60.17;;;13.23;;
8474;SDS011;4274;52.012;8.448;2024-02-04T03:01:47;49.40;;;9.70;;
8474;SDS011;4274;52.012;8.448;2024-02-04T03:04:13;48.87;;;8.77;;
8474;SDS011;4274;52.012;8.448;2024-02-04T03:06:38;49.20;;;8.87;;
8474;SDS011;4274;52.012;8.448;2024-02-04T03:09:04;47.77;;;8.57;;
8474;SDS011;4274;52.012;8.448;2024-02-04T03:11:29;48.23;;;8.70;;
8474;SDS011;4274;52.012;8.448;2024-02-04T03:13:55;47.57;;;7.90;;
8474;SDS011;4274;52.012;8.448;2024-02-04T03:16:20;47.83;;;7.63;;
8474;SDS011;4274;52.012;8.448;2024-02-04T03:18:46;47.57;;;8.10;;
8474;SDS011;4274;52.012;8.448;2024-02-04T03:21:15;48.80;;;8.20;;
8474;SDS011;4274;52.012;8.448;2024-02-04T03:23:42;46.97;;;7.80;;
8474;SDS011;4274;52.012;8.448;2024-02-04T03:26:08;51.50;;;8.80;;
8474;SDS011;4274;52.012;8.448;2024-02-04T03:28:34;44.67;;;6.93;;
8474;SDS011;4274;52.012;8.448;2024-02-04T03:31:00;47.67;;;6.73;;
8474;SDS011;4274;52.012;8.448;2024-02-04T03:33:25;43.97;;;7.17;;
8474;SDS011;4274;52.012;8.448;2024-02-04T03:35:51;47.20;;;7.77;;
8474;SDS011;4274;52.012;8.448;2024-02-04T03:38:17;47.10;;;7.00;;
8474;SDS011;4274;52.012;8.448;2024-02-04T03:40:42;48.73;;;7.57;;
8474;SDS011;4274;52.012;8.448;2024-02-04T03:43:08;48.53;;;7.80;;
8474;SDS011;4274;52.012;8.448;2024-02-04T03:45:35;46.50;;;7.90;;
8474;SDS011;4274;52.012;8.448;2024-02-04T03:48:01;50.10;;;8.40;;
8474;SDS011;4274;52.012;8.448;2024-02-04T03:50:26;46.10;;;7.20;;
8474;SDS011;4274;52.012;8.448;2024-02-04T03:52:52;44.40;;;8.00;;
8474;SDS011;4274;52.012;8.448;2024-02-04T03:55:18;48.63;;;7.40;;
8474;SDS011;4274;52.012;8.448;2024-02-04T03:57:44;47.40;;;8.83;;
8474;SDS011;4274;52.012;8.448;2024-02-04T04:00:09;56.00;;;8.37;;
8474;SDS011;4274;52.012;8.448;2024-02-04T04:02:36;47.50;;;8.57;;
8474;SDS011;4274;52.012;8.448;2024-02-04T04:05:02;53.90;;;8.67;;
8474;SDS011;4274;52.012;8.448;2024-02-04T04:07:27;47.63;;;8.40;;
8474;SDS011;4274;52.012;8.448;2024-02-04T04:09:53;49.40;;;8.80;;
8474;SDS011;4274;52.012;8.448;2024-02-04T04:12:18;48.70;;;9.23;;
8474;SDS011;4274;52.012;8.448;2024-02-04T04:14:44;50.00;;;9.03;;
8474;SDS011;4274;52.012;8.448;2024-02-04T04:17:10;46.03;;;8.43;;
8474;SDS011;4274;52.012;8.448;2024-02-04T04:19:35;48.90;;;8.20;;
8474;SDS011;4274;52.012;8.448;2024-02-04T04:22:02;45.90;;;7.20;;
8474;SDS011;4274;52.012;8.448;2024-02-04T04:24:28;44.70;;;7.30;;
8474;SDS011;4274;52.012;8.448;2024-02-04T04:26:53;43.40;;;5.60;;
8474;SDS011;4274;52.012;8.448;2024-02-04T04:29:20;44.37;;;6.33;;
8474;SDS011;4274;52.012;8.448;2024-02-04T04:31:46;41.80;;;5.63;;
8474;SDS011;4274;52.012;8.448;2024-02-04T04:34:12;42.27;;;5.90;;
8474;SDS011;4274;52.012;8.448;2024-02-04T04:36:37;41.40;;;5.60;;
8474;SDS011;4274;52.012;8.448;2024-02-04T04:39:03;43.47;;;5.70;;
8474;SDS011;4274;52.012;8.448;2024-02-04T04:41:28;42.50;;;5.97;;
8474;SDS011;4274;52.012;8.448;2024-02-04T04:43:54;45.53;;;5.60;;
8474;SDS011;4274;52.012;8.448;2024-02-04T04:46:20;44.97;;;6.20;;
8474;SDS011;4274;52.012;8.448;2024-02-04T04:48:45;43.20;;;5.43;;
8474;SDS011;4274;52.012;8.448;2024-02-04T04:51:11;41.97;;;4.70;;
8474;SDS011;4274;52.012;8.448;2024-02-04T04:53:37;40.80;;;4.13;;
8474;SDS011;4274;52.012;8.448;2024-02-04T04:56:03;40.40;;;4.60;;
8474;SDS011;4274;52.012;8.448;2024-02-04T04:58:29;39.97;;;4.50;;
8474;SDS011;4274;52.012;8.448;2024-02-04T05:00:55;42.67;;;3.80;;
8474;SDS011;4274;52.012;8.448;2024-02-04T05:03:20;39.20;;;4.33;;
8474;SDS011;4274;52.012;8.448;2024-02-04T05:05:46;39.77;;;4.10;;
8474;SDS011;4274;52.012;8.448;2024-02-04T05:08:13;40.73;;;4.07;;
8474;SDS011;4274;52.012;8.448;2024-02-04T05:10:39;42.63;;;4.00;;
8474;SDS011;4274;52.012;8.448;2024-02-04T05:13:04;40.33;;;3.47;;
8474;SDS011;4274;52.012;8.448;2024-02-04T05:15:30;40.90;;;3.87;;
8474;SDS011;4274;52.012;8.448;2024-02-04T05:17:56;38.00;;;3.30;;
8474;SDS011;4274;52.012;8.448;2024-02-04T05:20:21;39.20;;;3.60;;
8474;SDS011;4274;52.012;8.448;2024-02-04T05:22:47;43.50;;;4.00;;
8474;SDS011;4274;52.012;8.448;2024-02-04T05:25:12;40.77;;;4.90;;
8474;SDS011;4274;52.012;8.448;2024-02-04T05:27:38;41.20;;;4.67;;
8474;SDS011;4274;52.012;8.448;2024-02-04T05:30:04;41.60;;;4.60;;
8474;SDS011;4274;52.012;8.448;2024-02-04T05:32:30;40.37;;;4.50;;
8474;SDS011;4274;52.012;8.448;2024-02-04T05:34:56;40.57;;;4.50;;
8474;SDS011;4274;52.012;8.448;2024-02-04T05:37:21;47.90;;;4.60;;
8474;SDS011;4274;52.012;8.448;2024-02-04T05:39:47;42.63;;;5.60;;
8474;SDS011;4274;52.012;8.448;2024-02-04T05:42:13;48.57;;;5.10;;
8474;SDS011;4274;52.012;8.448;2024-02-04T05:44:38;41.63;;;5.00;;
8474;SDS011;4274;52.012;8.448;2024-02-04T05:47:04;41.93;;;5.40;;
8474;SDS011;4274;52.012;8.448;2024-02-04T05:49:30;41.60;;;4.70;;
8474;SDS011;4274;52.012;8.448;2024-02-04T05:51:55;45.00;;;6.60;;
8474;SDS011;4274;52.012;8.448;2024-02-04T05:54:21;44.50;;;4.93;;
8474;SDS011;4274;52.012;8.448;2024-02-04T05:56:46;41.30;;;4.47;;
8474;SDS011;4274;52.012;8.448;2024-02-04T05:59:12;42.70;;;5.00;;
8474;SDS011;4274;52.012;8.448;2024-02-04T06:01:37;45.60;;;5.17;;
8474;SDS011;4274;52.012;8.448;2024-02-04T06:04:03;42.47;;;5.47;;
8474;SDS011;4274;52.012;8.448;2024-02-04T06:06:29;42.23;;;4.77;;
8474;SDS011;4274;52.012;8.448;2024-02-04T06:08:54;42.83;;;5.17;;
8474;SDS011;4274;52.012;8.448;2024-02-04T06:11:20;42.77;;;4.53;;
8474;SDS011;4274;52.012;8.448;2024-02-04T06:13:45;48.17;;;5.63;;
8474;SDS011;4274;52.012;8.448;2024-02-04T06:16:11;41.03;;;5.07;;
8474;SDS011;4274;52.012;8.448;2024-02-04T06:18:37;44.53;;;6.37;;
8474;SDS011;4274;52.012;8.448;2024-02-04T06:21:04;44.97;;;5.37;;
8474;SDS011;4274;52.012;8.448;2024-02-04T06:23:30;45.50;;;5.57;;
8474;SDS011;4274;52.012;8.448;2024-02-04T06:25:56;42.30;;;5.13;;
8474;SDS011;4274;52.012;8.448;2024-02-04T06:28:21;41.57;;;4.93;;
8474;SDS011;4274;52.012;8.448;2024-02-04T06:30:48;46.37;;;5.90;;
8474;SDS011;4274;52.012;8.448;2024-02-04T06:33:14;45.10;;;5.93;;
8474;SDS011;4274;52.012;8.448;2024-02-04T06:35:40;41.10;;;5.43;;
8474;SDS011;4274;52.012;8.448;2024-02-04T06:38:05;42.30;;;5.00;;
8474;SDS011;4274;52.012;8.448;2024-02-04T06:40:31;42.93;;;5.13;;
8474;SDS011;4274;52.012;8.448;2024-02-04T06:42:56;43.70;;;4.90;;
8474;SDS011;4274;52.012;8.448;2024-02-04T06:45:22;46.90;;;5.70;;
8474;SDS011;4274;52.012;8.448;2024-02-04T06:47:47;43.60;;;4.97;;
8474;SDS011;4274;52.012;8.448;2024-02-04T06:50:13;42.50;;;5.50;;
8474;SDS011;4274;52.012;8.448;2024-02-04T06:52:42;44.40;;;6.33;;
8474;SDS011;4274;52.012;8.448;2024-02-04T06:55:08;44.50;;;5.13;;
8474;SDS011;4274;52.012;8.448;2024-02-04T06:57:34;49.07;;;5.90;;
8474;SDS011;4274;52.012;8.448;2024-02-04T07:00:00;44.33;;;5.80;;
8474;SDS011;4274;52.012;8.448;2024-02-04T07:02:26;45.97;;;5.57;;
8474;SDS011;4274;52.012;8.448;2024-02-04T07:04:52;44.00;;;6.27;;
8474;SDS011;4274;52.012;8.448;2024-02-04T07:07:18;45.20;;;6.83;;
8474;SDS011;4274;52.012;8.448;2024-02-04T07:09:44;45.63;;;7.13;;
8474;SDS011;4274;52.012;8.448;2024-02-04T07:12:09;46.70;;;6.20;;
8474;SDS011;4274;52.012;8.448;2024-02-04T07:14:35;44.80;;;6.60;;
8474;SDS011;4274;52.012;8.448;2024-02-04T07:17:01;49.13;;;7.00;;
8474;SDS011;4274;52.012;8.448;2024-02-04T07:19:26;49.60;;;7.87;;
8474;SDS011;4274;52.012;8.448;2024-02-04T07:21:52;47.07;;;7.63;;
8474;SDS011;4274;52.012;8.448;2024-02-04T07:24:17;51.13;;;7.73;;
8474;SDS011;4274;52.012;8.448;2024-02-04T07:26:43;47.27;;;6.93;;
8474;SDS011;4274;52.012;8.448;2024-02-04T07:29:10;47.10;;;6.27;;
8474;SDS011;4274;52.012;8.448;2024-02-04T07:31:37;51.00;;;7.07;;
8474;SDS011;4274;52.012;8.448;2024-02-04T07:34:02;49.27;;;7.70;;
8474;SDS011;4274;52.012;8.448;2024-02-04T07:36:29;48.07;;;6.40;;
8474;SDS011;4274;52.012;8.448;2024-02-04T07:38:54;51.37;;;7.10;;
8474;SDS011;4274;52.012;8.448;2024-02-04T07:41:20;48.60;;;8.57;;
8474;SDS011;4274;52.012;8.448;2024-02-04T07:43:45;47.00;;;7.33;;
8474;SDS011;4274;52.012;8.448;2024-02-04T07:46:13;47.43;;;7.73;;
8474;SDS011;4274;52.012;8.448;2024-02-04T07:48:39;55.03;;;7.57;;
8474;SDS011;4274;52.012;8.448;2024-02-04T07:51:04;53.30;;;9.00;;
8474;SDS011;4274;52.012;8.448;2024-02-04T07:53:31;47.47;;;8.17;;
8474;SDS011;4274;52.012;8.448;2024-02-04T07:55:57;49.57;;;9.23;;
8474;SDS011;4274;52.012;8.448;2024-02-04T07:58:22;55.20;;;9.57;;
8474;SDS011;4274;52.012;8.448;2024-02-04T08:00:48;50.47;;;8.73;;
8474;SDS011;4274;52.012;8.448;2024-02-04T08:03:13;52.67;;;8.40;;
8474;SDS011;4274;52.012;8.448;2024-02-04T08:05:39;48.33;;;8.77;;
8474;SDS011;4274;52.012;8.448;2024-02-04T08:08:05;53.20;;;9.33;;
8474;SDS011;4274;52.012;8.448;2024-02-04T08:10:31;51.57;;;9.40;;
8474;SDS011;4274;52.012;8.448;2024-02-04T08:12:56;48.57;;;6.90;;
8474;SDS011;4274;52.012;8.448;2024-02-04T08:15:22;45.87;;;6.50;;
8474;SDS011;4274;52.012;8.448;2024-02-04T08:17:48;52.60;;;6.07;;
8474;SDS011;4274;52.012;8.448;2024-02-04T08:20:13;43.17;;;4.43;;
8474;SDS011;4274;52.012;8.448;2024-02-04T08:22:39;45.33;;;4.07;;
8474;SDS011;4274;52.012;8.448;2024-02-04T08:25:04;43.07;;;4.00;;
8474;SDS011;4274;52.012;8.448;2024-02-04T08:27:30;44.83;;;3.80;;
8474;SDS011;4274;52.012;8.448;2024-02-04T08:29:56;42.37;;;3.40;;
8474;SDS011;4274;52.012;8.448;2024-02-04T08:32:22;43.53;;;3.37;;
8474;SDS011;4274;52.012;8.448;2024-02-04T08:34:47;45.67;;;3.60;;
8474;SDS011;4274;52.012;8.448;2024-02-04T08:37:13;44.20;;;3.30;;
8474;SDS011;4274;52.012;8.448;2024-02-04T08:39:39;43.97;;;3.90;;
8474;SDS011;4274;52.012;8.448;2024-02-04T08:42:04;42.67;;;3.47;;
8474;SDS011;4274;52.012;8.448;2024-02-04T08:44:30;47.70;;;4.33;;
8474;SDS011;4274;52.012;8.448;2024-02-04T08:46:56;43.20;;;4.07;;
8474;SDS011;4274;52.012;8.448;2024-02-04T08:49:21;46.83;;;3.73;;
8474;SDS011;4274;52.012;8.448;2024-02-04T08:51:48;39.63;;;3.10;;
8474;SDS011;4274;52.012;8.448;2024-02-04T08:54:13;42.63;;;3.90;;
8474;SDS011;4274;52.012;8.448;2024-02-04T08:56:39;40.20;;;3.80;;
8474;SDS011;4274;52.012;8.448;2024-02-04T08:59:05;41.97;;;3.60;;
8474;SDS011;4274;52.012;8.448;2024-02-04T09:01:31;41.60;;;3.30;;
8474;SDS011;4274;52.012;8.448;2024-02-04T09:03:56;46.63;;;3.50;;
8474;SDS011;4274;52.012;8.448;2024-02-04T09:06:22;47.73;;;3.57;;
8474;SDS011;4274;52.012;8.448;2024-02-04T09:08:48;45.60;;;4.00;;
8474;SDS011;4274;52.012;8.448;2024-02-04T09:11:13;45.17;;;3.73;;
8474;SDS011;4274;52.012;8.448;2024-02-04T09:13:44;42.40;;;3.80;;
8474;SDS011;4274;52.012;8.448;2024-02-04T09:16:10;51.97;;;4.40;;
8474;SDS011;4274;52.012;8.448;2024-02-04T09:18:35;40.50;;;3.10;;
8474;SDS011;4274;52.012;8.448;2024-02-04T09:21:01;41.37;;;2.60;;
8474;SDS011;4274;52.012;8.448;2024-02-04T09:23:27;51.70;;;4.77;;
8474;SDS011;4274;52.012;8.448;2024-02-04T09:25:53;42.00;;;3.83;;
8474;SDS011;4274;52.012;8.448;2024-02-04T09:28:18;41.73;;;4.60;;
8474;SDS011;4274;52.012;8.448;2024-02-04T09:30:44;43.50;;;3.17;;
8474;SDS011;4274;52.012;8.448;2024-02-04T09:33:09;44.43;;;3.57;;
8474;SDS011;4274;52.012;8.448;2024-02-04T09:35:35;43.00;;;3.17;;
8474;SDS011;4274;52.012;8.448;2024-02-04T09:38:00;42.50;;;2.90;;
8474;SDS011;4274;52.012;8.448;2024-02-04T09:40:26;44.40;;;3.43;;
8474;SDS011;4274;52.012;8.448;2024-02-04T09:42:52;40.70;;;2.93;;
8474;SDS011;4274;52.012;8.448;2024-02-04T09:45:19;45.53;;;3.60;;
8474;SDS011;4274;52.012;8.448;2024-02-04T09:47:45;43.20;;;3.50;;
8474;SDS011;4274;52.012;8.448;2024-02-04T09:50:11;43.00;;;3.50;;
8474;SDS011;4274;52.012;8.448;2024-02-04T09:52:39;48.17;;;3.90;;
8474;SDS011;4274;52.012;8.448;2024-02-04T09:55:08;44.07;;;3.90;;
8474;SDS011;4274;52.012;8.448;2024-02-04T09:57:37;48.87;;;4.10;;
8474;SDS011;4274;52.012;8.448;2024-02-04T10:00:03;43.97;;;3.97;;
8474;SDS011;4274;52.012;8.448;2024-02-04T10:02:30;49.70;;;4.50;;
8474;SDS011;4274;52.012;8.448;2024-02-04T10:04:57;42.33;;;3.70;;
8474;SDS011;4274;52.012;8.448;2024-02-04T10:07:23;51.23;;;4.13;;
8474;SDS011;4274;52.012;8.448;2024-02-04T10:09:49;51.70;;;4.80;;
8474;SDS011;4274;52.012;8.448;2024-02-04T10:12:15;41.40;;;3.63;;
8474;SDS011;4274;52.012;8.448;2024-02-04T10:14:41;46.30;;;3.97;;
8474;SDS011;4274;52.012;8.448;2024-02-04T10:17:07;54.10;;;5.13;;
8474;SDS011;4274;52.012;8.448;2024-02-04T10:19:33;45.30;;;4.07;;
8474;SDS011;4274;52.012;8.448;2024-02-04T10:21:59;39.63;;;3.40;;
8474;SDS011;4274;52.012;8.448;2024-02-04T10:24:26;43.43;;;4.80;;
8474;SDS011;4274;52.012;8.448;2024-02-04T10:26:52;43.00;;;3.20;;
8474;SDS011;4274;52.012;8.448;2024-02-04T10:29:18;41.20;;;3.20;;
8474;SDS011;4274;52.012;8.448;2024-02-04T10:31:44;39.50;;;3.47;;
8474;SDS011;4274;52.012;8.448;2024-02-04T10:34:09;40.70;;;3.20;;
8474;SDS011;4274;52.012;8.448;2024-02-04T10:36:35;42.57;;;3.70;;
8474;SDS011;4274;52.012;8.448;2024-02-04T10:39:00;44.97;;;3.90;;
8474;SDS011;4274;52.012;8.448;2024-02-04T10:41:26;45.87;;;3.40;;
8474;SDS011;4274;52.012;8.448;2024-02-04T10:43:56;42.57;;;3.80;;
8474;SDS011;4274;52.012;8.448;2024-02-04T10:46:27;41.50;;;3.63;;
8474;SDS011;4274;52.012;8.448;2024-02-04T10:48:57;40.33;;;3.30;;
8474;SDS011;4274;52.012;8.448;2024-02-04T10:51:25;39.57;;;3.77;;
8474;SDS011;4274;52.012;8.448;2024-02-04T10:53:53;41.60;;;3.50;;
8474;SDS011;4274;52.012;8.448;2024-02-04T10:56:25;42.50;;;3.30;;
8474;SDS011;4274;52.012;8.448;2024-02-04T10:58:51;44.00;;;3.90;;
8474;SDS011;4274;52.012;8.448;2024-02-04T11:01:18;42.57;;;4.17;;
8474;SDS011;4274;52.012;8.448;2024-02-04T11:03:45;43.80;;;4.20;;
8474;SDS011;4274;52.012;8.448;2024-02-04T11:06:11;42.27;;;4.20;;
8474;SDS011;4274;52.012;8.448;2024-02-04T11:08:38;44.40;;;4.47;;
8474;SDS011;4274;52.012;8.448;2024-02-04T11:11:04;41.23;;;3.77;;
8474;SDS011;4274;52.012;8.448;2024-02-04T11:13:30;43.60;;;5.03;;
8474;SDS011;4274;52.012;8.448;2024-02-04T11:16:00;40.23;;;4.00;;
8474;SDS011;4274;52.012;8.448;2024-02-04T11:26:53;44.13;;;4.77;;
8474;SDS011;4274;52.012;8.448;2024-02-04T11:29:20;42.77;;;4.97;;
8474;SDS011;4274;52.012;8.448;2024-02-04T11:31:46;41.73;;;4.90;;
8474;SDS011;4274;52.012;8.448;2024-02-04T11:34:13;44.57;;;4.83;;
8474;SDS011;4274;52.012;8.448;2024-02-04T11:36:39;45.93;;;4.57;;
8474;SDS011;4274;52.012;8.448;2024-02-04T11:39:11;43.13;;;4.47;;
8474;SDS011;4274;52.012;8.448;2024-02-04T11:41:48;43.87;;;4.73;;
8474;SDS011;4274;52.012;8.448;2024-02-04T11:44:21;48.53;;;5.63;;
8474;SDS011;4274;52.012;8.448;2024-02-04T11:46:47;44.37;;;5.30;;
8474;SDS011;4274;52.012;8.448;2024-02-04T11:49:14;50.80;;;7.33;;
8474;SDS011;4274;52.012;8.448;2024-02-04T11:51:44;43.97;;;4.80;;
8474;SDS011;4274;52.012;8.448;2024-02-04T11:54:10;42.47;;;4.80;;
8474;SDS011;4274;52.012;8.448;2024-02-04T11:56:38;41.20;;;4.90;;
8474;SDS011;4274;52.012;8.448;2024-02-04T11:59:05;43.40;;;6.07;;
8474;SDS011;4274;52.012;8.448;2024-02-04T12:01:32;42.37;;;4.90;;
8474;SDS011;4274;52.012;8.448;2024-02-04T12:04:08;49.03;;;5.80;;
8474;SDS011;4274;52.012;8.448;2024-02-04T12:06:40;43.83;;;5.10;;
8474;SDS011;4274;52.012;8.448;2024-02-04T12:09:06;44.57;;;5.20;;
8474;SDS011;4274;52.012;8.448;2024-02-04T12:11:36;45.60;;;5.77;;
8474;SDS011;4274;52.012;8.448;2024-02-04T12:14:05;42.33;;;5.40;;
8474;SDS011;4274;52.012;8.448;2024-02-04T12:16:32;45.73;;;6.20;;
8474;SDS011;4274;52.012;8.448;2024-02-04T12:19:00;44.10;;;6.80;;
8474;SDS011;4274;52.012;8.448;2024-02-04T12:21:28;43.73;;;6.40;;
8474;SDS011;4274;52.012;8.448;2024-02-04T12:23:54;44.27;;;6.20;;
8474;SDS011;4274;52.012;8.448;2024-02-04T12:26:20;48.80;;;6.30;;
8474;SDS011;4274;52.012;8.448;2024-02-04T12:28:47;45.73;;;7.30;;
8474;SDS011;4274;52.012;8.448;2024-02-04T12:31:20;43.90;;;6.80;;
8474;SDS011;4274;52.012;8.448;2024-02-04T12:33:56;51.43;;;6.87;;
8474;SDS011;4274;52.012;8.448;2024-02-04T12:36:32;48.23;;;7.33;;
8474;SDS011;4274;52.012;8.448;2024-02-04T12:38:59;52.17;;;7.97;;
8474;SDS011;4274;52.012;8.448;2024-02-04T12:41:26;51.90;;;6.93;;
8474;SDS011;4274;52.012;8.448;2024-02-04T12:43:56;45.60;;;6.50;;
8474;SDS011;4274;52.012;8.448;2024-02-04T12:46:23;50.70;;;7.83;;
8474;SDS011;4274;52.012;8.448;2024-02-04T12:48:52;46.53;;;7.60;;
8474;SDS011;4274;52.012;8.448;2024-02-04T12:51:31;48.00;;;8.37;;
8474;SDS011;4274;52.012;8.448;2024-02-04T12:54:04;49.80;;;8.20;;
8474;SDS011;4274;52.012;8.448;2024-02-04T12:59:29;56.10;;;7.20;;
8474;SDS011;4274;52.012;8.448;2024-02-04T13:01:56;44.03;;;7.00;;
8474;SDS011;4274;52.012;8.448;2024-02-04T13:04:23;46.57;;;8.50;;
8474;SDS011;4274;52.012;8.448;2024-02-04T13:06:50;46.27;;;6.30;;
8474;SDS011;4274;52.012;8.448;2024-02-04T13:09:16;48.80;;;6.90;;
8474;SDS011;4274;52.012;8.448;2024-02-04T13:11:42;46.97;;;7.37;;
8474;SDS011;4274;52.012;8.448;2024-02-04T13:14:08;53.83;;;7.00;;
8474;SDS011;4274;52.012;8.448;2024-02-04T13:16:34;46.60;;;7.77;;
8474;SDS011;4274;52.012;8.448;2024-02-04T13:19:01;46.30;;;7.37;;
8474;SDS011;4274;52.012;8.448;2024-02-04T13:21:28;48.10;;;7.13;;
8474;SDS011;4274;52.012;8.448;2024-02-04T13:23:53;47.00;;;7.00;;
8474;SDS011;4274;52.012;8.448;2024-02-04T13:26:19;43.90;;;6.73;;
8474;SDS011;4274;52.012;8.448;2024-02-04T13:28:45;56.00;;;7.70;;
8474;SDS011;4274;52.012;8.448;2024-02-04T13:31:11;46.93;;;5.87;;
8474;SDS011;4274;52.012;8.448;2024-02-04T13:33:40;45.20;;;5.63;;
8474;SDS011;4274;52.012;8.448;2024-02-04T13:36:07;45.80;;;5.80;;
8474;SDS011;4274;52.012;8.448;2024-02-04T13:38:33;39.60;;;4.17;;
8474;SDS011;4274;52.012;8.448;2024-02-04T13:40:59;41.70;;;4.53;;
8474;SDS011;4274;52.012;8.448;2024-02-04T13:43:25;40.80;;;4.57;;
8474;SDS011;4274;52.012;8.448;2024-02-04T13:45:51;40.50;;;4.67;;
8474;SDS011;4274;52.012;8.448;2024-02-04T13:48:17;40.50;;;4.37;;
8474;SDS011;4274;52.012;8.448;2024-02-04T13:50:44;41.67;;;4.63;;
8474;SDS011;4274;52.012;8.448;2024-02-04T13:53:10;40.40;;;4.33;;
8474;SDS011;4274;52.012;8.448;2024-02-04T13:55:36;40.60;;;4.00;;
8474;SDS011;4274;52.012;8.448;2024-02-04T13:58:02;41.80;;;3.60;;
8474;SDS011;4274;52.012;8.448;2024-02-04T14:00:28;43.07;;;4.90;;
8474;SDS011;4274;52.012;8.448;2024-02-04T14:02:54;41.50;;;5.23;;
8474;SDS011;4274;52.012;8.448;2024-02-04T14:05:19;41.57;;;5.30;;
8474;SDS011;4274;52.012;8.448;2024-02-04T14:07:45;43.90;;;6.00;;
8474;SDS011;4274;52.012;8.448;2024-02-04T14:10:10;42.43;;;5.90;;
8474;SDS011;4274;52.012;8.448;2024-02-04T14:12:37;44.30;;;5.90;;
8474;SDS011;4274;52.012;8.448;2024-02-04T14:15:05;40.83;;;5.10;;
8474;SDS011;4274;52.012;8.448;2024-02-04T14:17:32;44.60;;;6.20;;
8474;SDS011;4274;52.012;8.448;2024-02-04T14:19:57;44.77;;;6.00;;
8474;SDS011;4274;52.012;8.448;2024-02-04T14:22:23;41.60;;;6.00;;
8474;SDS011;4274;52.012;8.448;2024-02-04T14:24:49;42.87;;;5.07;;
8474;SDS011;4274;52.012;8.448;2024-02-04T14:27:15;40.67;;;4.83;;
8474;SDS011;4274;52.012;8.448;2024-02-04T14:29:40;41.43;;;4.83;;
8474;SDS011;4274;52.012;8.448;2024-02-04T14:32:06;44.17;;;5.60;;
8474;SDS011;4274;52.012;8.448;2024-02-04T14:34:33;45.17;;;5.10;;
8474;SDS011;4274;52.012;8.448;2024-02-04T14:36:59;41.80;;;5.27;;
8474;SDS011;4274;52.012;8.448;2024-02-04T14:39:25;46.07;;;5.97;;
8474;SDS011;4274;52.012;8.448;2024-02-04T14:41:50;40.40;;;5.30;;
8474;SDS011;4274;52.012;8.448;2024-02-04T14:44:18;43.73;;;5.53;;
8474;SDS011;4274;52.012;8.448;2024-02-04T14:46:44;42.10;;;5.60;;
8474;SDS011;4274;52.012;8.448;2024-02-04T14:49:11;43.43;;;5.33;;
8474;SDS011;4274;52.012;8.448;2024-02-04T14:51:40;43.30;;;5.13;;
8474;SDS011;4274;52.012;8.448;2024-02-04T14:54:06;45.60;;;5.70;;
8474;SDS011;4274;52.012;8.448;2024-02-04T14:56:40;44.60;;;5.60;;
8474;SDS011;4274;52.012;8.448;2024-02-04T14:59:08;44.50;;;5.13;;
8474;SDS011;4274;52.012;8.448;2024-02-04T15:01:35;45.00;;;6.07;;
8474;SDS011;4274;52.012;8.448;2024-02-04T15:04:01;43.43;;;4.80;;
8474;SDS011;4274;52.012;8.448;2024-02-04T15:06:26;42.33;;;5.53;;
8474;SDS011;4274;52.012;8.448;2024-02-04T15:08:54;41.50;;;5.50;;